Time;durP1;ratioP1;P1;durP2;ratioP2;P2;SDS_P1;SDS_P2;PMS_P1;PMS_P2;Temp;Humidity;BMP_temperature;BMP_pressure;BME280_temperature;BME280_humidity;BME280_pressure;Samples;Min_cycle;Max_cycle;Signal;HPM_P1;HPM_P2
2022/05/25 00:01:16;;;;;;;3.30;2.10;;;12.60;82.30;;;;;;5060668;28;20452;-67
2022/05/25 00:03:43;;;;;;;2.60;1.95;;;12.60;83.20;;;;;;5067601;28;20431;-67
2022/05/25 00:06:11;;;;;;;2.30;1.80;;;12.60;83.60;;;;;;5061050;28;20958;-67
2022/05/25 00:08:38;;;;;;;2.00;1.60;;;12.60;83.30;;;;;;5070867;28;20415;-67
2022/05/25 00:11:06;;;;;;;2.40;2.00;;;12.60;83.60;;;;;;5061462;28;20435;-67
2022/05/25 00:13:32;;;;;;;2.83;1.90;;;12.60;83.30;;;;;;5069714;28;20431;-67
2022/05/25 00:15:59;;;;;;;2.30;1.67;;;12.60;83.80;;;;;;5066566;28;20431;-67
2022/05/25 00:18:26;;;;;;;2.08;1.77;;;12.60;82.70;;;;;;5065887;28;20431;-67
2022/05/25 00:20:52;;;;;;;2.00;1.80;;;12.60;82.40;;;;;;5067725;28;20427;-67
2022/05/25 00:23:19;;;;;;;2.55;2.15;;;12.60;82.80;;;;;;5070649;28;20427;-67
2022/05/25 00:25:46;;;;;;;2.45;1.88;;;12.50;83.50;;;;;;5064314;28;20484;-67
2022/05/25 00:28:15;;;;;;;2.58;1.80;;;12.50;83.70;;;;;;5068544;28;20920;-67
2022/05/25 00:30:43;;;;;;;3.00;1.75;;;12.50;82.70;;;;;;5067800;28;20440;-67
2022/05/25 00:33:11;;;;;;;1.80;1.70;;;12.50;82.50;;;;;;5069121;28;20416;-67
2022/05/25 00:35:39;;;;;;;2.70;1.92;;;12.50;83.20;;;;;;5068893;28;20450;-67
2022/05/25 00:38:07;;;;;;;3.35;1.95;;;12.40;83.80;;;;;;5068879;28;20465;-68
2022/05/25 00:40:37;;;;;;;2.70;2.10;;;12.40;83.60;;;;;;5063247;28;20528;-67
2022/05/25 00:43:04;;;;;;;2.33;2.03;;;12.30;83.20;;;;;;5067960;28;20435;-67
2022/05/25 00:45:37;;;;;;;2.80;1.90;;;12.30;84.00;;;;;;5069256;28;20428;-67
2022/05/25 00:48:06;;;;;;;2.40;1.80;;;12.30;84.20;;;;;;5069010;28;21019;-67
2022/05/25 00:53:14;;;;;;;3.00;2.05;;;12.20;83.90;;;;;;5068300;28;20431;-68
2022/05/25 00:55:41;;;;;;;4.05;2.17;;;12.20;84.70;;;;;;5068136;28;20431;-67
2022/05/25 00:58:08;;;;;;;2.13;1.92;;;12.10;84.60;;;;;;5069515;28;20423;-67
2022/05/25 01:00:37;;;;;;;3.53;2.10;;;12.10;84.90;;;;;;5068662;28;20431;-67
2022/05/25 01:03:08;;;;;;;3.10;1.85;;;12.10;84.80;;;;;;5068409;28;20432;-68
2022/05/25 01:05:40;;;;;;;2.30;1.80;;;12.00;84.40;;;;;;5066055;28;20431;-67
2022/05/25 01:08:24;;;;;;;2.70;2.00;;;12.00;84.30;;;;;;5067468;28;20412;-67
2022/05/25 01:11:03;;;;;;;2.00;1.80;;;12.00;84.50;;;;;;5068264;28;20481;-67
2022/05/25 01:13:37;;;;;;;2.33;1.80;;;12.00;84.80;;;;;;5067675;28;20912;-68
2022/05/25 01:16:16;;;;;;;3.03;2.50;;;11.90;85.40;;;;;;5065031;28;20427;-67
2022/05/25 01:18:49;;;;;;;2.80;2.00;;;12.00;86.00;;;;;;5066908;28;20435;-67
2022/05/25 01:21:23;;;;;;;2.90;2.00;;;12.00;85.00;;;;;;5066946;28;20439;-67
2022/05/25 01:24:19;;;;;;;2.60;2.33;;;12.00;85.40;;;;;;5065281;28;20500;-67
2022/05/25 01:27:21;;;;;;;2.67;2.10;;;12.00;85.80;;;;;;5065018;28;20431;-67
2022/05/25 01:30:04;;;;;;;3.45;2.10;;;12.00;85.60;;;;;;5068227;28;20470;-67
2022/05/25 01:32:39;;;;;;;3.05;2.20;;;12.00;85.10;;;;;;5060365;28;20459;-67
2022/05/25 01:35:14;;;;;;;2.50;2.30;;;11.90;85.10;;;;;;5068621;28;20416;-67
2022/05/25 01:37:47;;;;;;;3.15;2.38;;;11.90;85.30;;;;;;5065405;28;20439;-67
2022/05/25 01:40:22;;;;;;;2.83;2.60;;;11.90;85.70;;;;;;5068497;28;20522;-67
2022/05/25 01:42:55;;;;;;;3.70;2.20;;;11.90;85.50;;;;;;5062547;28;20498;-67
2022/05/25 01:45:27;;;;;;;2.40;2.20;;;11.90;85.20;;;;;;5068248;28;20434;-67
2022/05/25 01:47:55;;;;;;;2.83;2.20;;;11.90;85.20;;;;;;5067021;28;20430;-67
2022/05/25 01:50:26;;;;;;;2.67;2.17;;;11.80;85.30;;;;;;5067600;28;20427;-66
2022/05/25 01:52:57;;;;;;;3.63;2.30;;;11.70;86.00;;;;;;5066520;28;20565;-66
2022/05/25 01:55:29;;;;;;;3.10;2.38;;;11.70;85.80;;;;;;5068935;28;20419;-66
2022/05/25 01:57:58;;;;;;;2.60;2.40;;;11.70;86.40;;;;;;5067234;28;20454;-66
2022/05/25 02:00:29;;;;;;;2.40;2.20;;;11.70;86.70;;;;;;5066502;28;20489;-67
2022/05/25 02:05:47;;;;;;;2.53;2.33;;;11.70;86.10;;;;;;5066440;28;20785;-66
2022/05/25 02:08:21;;;;;;;2.90;2.70;;;11.70;86.30;;;;;;5067078;28;20435;-66
2022/05/25 02:10:57;;;;;;;3.05;2.83;;;11.70;85.60;;;;;;5067633;28;20961;-65
2022/05/25 02:13:33;;;;;;;3.40;3.10;;;11.60;85.90;;;;;;5065054;28;20489;-66
2022/05/25 02:16:17;;;;;;;3.08;2.80;;;11.60;85.80;;;;;;5065207;28;20486;-66
2022/05/25 02:18:52;;;;;;;3.58;3.28;;;11.60;85.80;;;;;;5066329;28;20442;-66
2022/05/25 02:21:25;;;;;;;3.22;2.90;;;11.50;85.80;;;;;;5067060;28;20512;-66
2022/05/25 02:23:57;;;;;;;3.17;2.90;;;11.60;86.20;;;;;;5067007;28;20427;-66
2022/05/25 02:26:28;;;;;;;3.25;2.95;;;11.50;86.40;;;;;;5065801;28;20795;-66
2022/05/25 02:29:01;;;;;;;3.28;2.97;;;11.50;86.00;;;;;;5067718;28;20435;-66
2022/05/25 02:31:36;;;;;;;3.30;3.00;;;11.50;86.20;;;;;;5063197;28;20481;-66
2022/05/25 02:34:06;;;;;;;3.80;3.17;;;11.50;86.90;;;;;;5060045;28;20427;-66
2022/05/25 02:36:35;;;;;;;3.67;2.87;;;11.40;86.80;;;;;;5065555;28;20989;-65
2022/05/25 02:39:04;;;;;;;3.25;2.95;;;11.40;86.80;;;;;;5064636;28;20435;-65
2022/05/25 02:41:34;;;;;;;3.28;3.00;;;11.40;87.10;;;;;;5066186;28;20484;-66
2022/05/25 02:44:03;;;;;;;3.63;3.10;;;11.40;86.70;;;;;;5065544;28;20443;-66
2022/05/25 02:46:30;;;;;;;3.28;2.97;;;11.40;87.60;;;;;;5065268;28;20449;-66
2022/05/25 02:48:58;;;;;;;3.70;3.40;;;11.30;87.80;;;;;;5066031;28;20856;-66
2022/05/25 02:51:25;;;;;;;3.40;3.10;;;11.30;88.10;;;;;;5067126;28;21001;-66
2022/05/25 02:53:51;;;;;;;6.55;3.15;;;11.30;87.20;;;;;;5066502;28;20797;-66
2022/05/25 02:56:18;;;;;;;3.00;2.70;;;11.30;87.00;;;;;;5065753;28;20931;-66
2022/05/25 02:58:45;;;;;;;2.97;2.50;;;11.40;86.10;;;;;;5066697;28;20435;-66
2022/05/25 03:01:11;;;;;;;3.30;2.67;;;11.30;85.40;;;;;;5065206;28;20496;-66
2022/05/25 03:03:40;;;;;;;3.10;2.30;;;11.30;85.30;;;;;;5066443;28;20850;-66
2022/05/25 03:06:08;;;;;;;2.72;2.53;;;11.40;84.80;;;;;;5065655;28;20427;-66
2022/05/25 03:08:36;;;;;;;2.90;2.60;;;11.40;84.40;;;;;;5066644;28;20539;-67
2022/05/25 03:11:03;;;;;;;2.70;2.40;;;11.40;84.80;;;;;;5066229;28;20442;-68
2022/05/25 03:13:30;;;;;;;3.03;2.13;;;11.40;84.50;;;;;;5066039;28;20534;-66
2022/05/25 03:15:58;;;;;;;3.35;2.30;;;11.30;84.30;;;;;;5065715;28;20477;-66
2022/05/25 03:18:25;;;;;;;3.70;2.30;;;11.30;84.50;;;;;;5066280;28;20855;-66
2022/05/25 03:20:53;;;;;;;2.60;2.40;;;11.30;84.80;;;;;;5066881;28;20480;-66
2022/05/25 03:23:20;;;;;;;3.00;2.50;;;11.30;84.40;;;;;;5065879;28;20431;-66
2022/05/25 03:25:47;;;;;;;2.60;2.40;;;11.20;84.40;;;;;;5065840;28;20477;-66
2022/05/25 03:28:14;;;;;;;2.83;2.53;;;11.20;84.60;;;;;;5065337;28;20925;-66
2022/05/25 03:30:43;;;;;;;3.05;2.58;;;11.20;84.60;;;;;;5064989;28;20431;-65
2022/05/25 03:33:10;;;;;;;3.60;2.70;;;11.20;84.60;;;;;;5072277;28;20489;-65
2022/05/25 03:35:38;;;;;;;3.10;2.80;;;11.20;84.80;;;;;;5073730;28;20431;-66
2022/05/25 03:38:06;;;;;;;4.03;2.40;;;11.20;84.50;;;;;;5071760;28;20488;-65
2022/05/25 03:40:33;;;;;;;3.22;2.75;;;11.20;84.60;;;;;;5067721;28;20998;-66
2022/05/25 03:43:00;;;;;;;4.40;2.85;;;11.20;84.60;;;;;;5064916;28;20514;-67
2022/05/25 03:45:27;;;;;;;3.58;2.70;;;11.20;84.60;;;;;;5068442;28;20798;-67
2022/05/25 03:47:54;;;;;;;4.03;3.05;;;11.10;84.90;;;;;;5058319;28;20471;-67
2022/05/25 03:50:20;;;;;;;4.22;2.88;;;11.10;84.80;;;;;;5055896;28;20413;-66
2022/05/25 03:52:48;;;;;;;2.60;2.40;;;11.20;84.50;;;;;;5064695;28;20436;-65
2022/05/25 03:55:16;;;;;;;3.58;2.70;;;11.10;84.80;;;;;;5072122;28;20439;-66
2022/05/25 03:57:43;;;;;;;4.10;2.95;;;11.10;84.90;;;;;;5071848;28;20489;-66
2022/05/25 04:00:11;;;;;;;4.80;2.90;;;11.00;85.10;;;;;;5073050;28;20411;-67
2022/05/25 04:02:37;;;;;;;3.13;2.80;;;11.00;85.20;;;;;;5071954;28;20419;-66
2022/05/25 04:05:12;;;;;;;3.90;2.70;;;10.90;85.30;;;;;;5072772;28;20519;-66
2022/05/25 04:07:43;;;;;;;3.35;2.63;;;10.90;85.40;;;;;;5069656;28;20782;-65
2022/05/25 04:10:13;;;;;;;3.00;2.70;;;10.90;85.30;;;;;;5070938;28;20476;-66
2022/05/25 04:12:41;;;;;;;3.67;2.80;;;10.90;85.30;;;;;;5067728;28;20441;-66
2022/05/25 04:15:09;;;;;;;3.05;2.70;;;10.90;85.30;;;;;;5065976;28;20427;-65
2022/05/25 04:17:36;;;;;;;3.58;2.80;;;10.90;85.40;;;;;;5065378;28;20427;-66
2022/05/25 04:20:04;;;;;;;3.63;2.97;;;11.00;85.80;;;;;;5067826;28;20842;-66
2022/05/25 04:22:32;;;;;;;4.80;3.10;;;11.00;85.30;;;;;;5073558;28;20840;-66
2022/05/25 04:24:59;;;;;;;4.67;3.00;;;11.00;85.50;;;;;;5066479;28;20435;-66
2022/05/25 04:27:26;;;;;;;4.72;3.10;;;11.00;84.80;;;;;;5066758;28;20510;-66
2022/05/25 04:29:54;;;;;;;3.95;3.30;;;11.00;84.90;;;;;;5067093;28;20941;-67
2022/05/25 04:32:21;;;;;;;3.42;3.13;;;11.00;85.10;;;;;;5070072;28;20431;-67
2022/05/25 04:34:48;;;;;;;3.53;3.10;;;11.10;85.00;;;;;;5064991;28;20434;-65
2022/05/25 04:39:59;;;;;;;5.10;3.80;;;11.00;85.20;;;;;;5063997;28;20528;-66
2022/05/25 04:42:28;;;;;;;4.30;3.37;;;11.00;86.00;;;;;;5051710;28;20417;-66
2022/05/25 04:45:00;;;;;;;6.63;3.75;;;11.00;85.20;;;;;;5047663;28;20486;-65
2022/05/25 04:47:27;;;;;;;4.43;3.10;;;11.00;85.60;;;;;;5048883;28;20432;-64
2022/05/25 04:49:54;;;;;;;4.00;3.60;;;11.10;85.60;;;;;;5048250;28;20498;-64
2022/05/25 04:52:21;;;;;;;5.50;3.78;;;11.10;85.00;;;;;;5048131;28;20437;-64
2022/05/25 04:54:47;;;;;;;5.03;3.45;;;11.20;84.90;;;;;;5049783;28;20425;-64
2022/05/25 04:57:19;;;;;;;6.05;3.22;;;11.20;84.80;;;;;;5050030;28;20425;-64
2022/05/25 04:59:46;;;;;;;5.50;3.47;;;11.30;84.20;;;;;;5048920;28;20456;-65
2022/05/25 05:02:15;;;;;;;6.20;3.70;;;11.30;84.30;;;;;;5044533;28;20552;-64
2022/05/25 05:04:42;;;;;;;4.07;3.50;;;11.30;84.10;;;;;;5049409;28;20772;-65
2022/05/25 05:07:08;;;;;;;4.88;3.40;;;11.20;84.00;;;;;;5048196;28;20429;-65
2022/05/25 05:09:36;;;;;;;6.20;3.70;;;11.30;84.40;;;;;;5050348;28;20487;-65
2022/05/25 05:12:04;;;;;;;5.20;3.40;;;11.30;84.60;;;;;;5045722;28;20930;-65
2022/05/25 05:14:30;;;;;;;5.30;3.60;;;11.40;83.70;;;;;;5043317;28;20915;-66
2022/05/25 05:16:58;;;;;;;4.75;3.90;;;11.40;83.20;;;;;;5045262;28;20487;-65
2022/05/25 05:19:26;;;;;;;5.10;3.80;;;11.50;83.40;;;;;;5049274;28;20793;-65
2022/05/25 05:21:55;;;;;;;5.15;3.60;;;11.50;83.00;;;;;;5049092;28;20518;-65
2022/05/25 05:24:22;;;;;;;4.50;3.55;;;11.60;82.60;;;;;;5046947;28;20798;-65
2022/05/25 05:26:48;;;;;;;5.25;3.65;;;11.60;82.50;;;;;;5044986;28;20436;-65
2022/05/25 05:29:15;;;;;;;5.10;4.40;;;11.60;82.30;;;;;;5047531;28;20460;-66
2022/05/25 05:31:42;;;;;;;6.50;4.50;;;11.60;82.50;;;;;;5049492;28;20428;-66
2022/05/25 05:34:09;;;;;;;6.10;3.80;;;11.70;82.40;;;;;;5045955;28;20976;-65
2022/05/25 05:36:42;;;;;;;7.25;4.43;;;11.70;82.50;;;;;;5045411;28;20436;-65
2022/05/25 05:39:11;;;;;;;7.47;4.20;;;11.80;81.50;;;;;;5050237;28;20417;-66
2022/05/25 05:41:40;;;;;;;9.05;5.18;;;11.80;81.00;;;;;;5067965;28;20485;-65
2022/05/25 05:44:09;;;;;;;7.15;4.72;;;11.90;80.90;;;;;;5069502;28;21024;-65
2022/05/25 05:46:41;;;;;;;6.63;4.80;;;12.00;81.10;;;;;;5068634;28;20419;-65
2022/05/25 05:49:08;;;;;;;5.38;4.38;;;12.00;80.20;;;;;;5067107;28;20554;-65
2022/05/25 05:51:38;;;;;;;6.10;4.50;;;12.20;79.80;;;;;;5128835;22;20503;-70
2022/05/25 05:54:05;;;;;;;5.33;4.40;;;12.20;79.70;;;;;;5124821;27;20410;-70
2022/05/25 05:56:33;;;;;;;6.45;4.65;;;12.30;78.40;;;;;;5123744;27;20429;-70
2022/05/25 05:59:00;;;;;;;5.85;3.72;;;12.40;78.80;;;;;;5117096;27;20429;-70
2022/05/25 06:01:27;;;;;;;5.00;4.30;;;12.50;78.10;;;;;;5112888;27;20485;-70
2022/05/25 06:03:53;;;;;;;6.28;3.42;;;12.50;77.80;;;;;;5105776;28;20557;-70
2022/05/25 06:06:23;;;;;;;6.00;3.80;;;12.60;77.50;;;;;;5110129;27;20532;-69
2022/05/25 06:08:51;;;;;;;5.90;3.75;;;12.60;75.70;;;;;;5106223;27;20885;-70
2022/05/25 06:11:19;;;;;;;6.40;3.60;;;12.60;75.50;;;;;;5102020;27;20486;-70
2022/05/25 06:13:47;;;;;;;4.53;3.70;;;12.70;76.10;;;;;;5116113;27;20476;-70
2022/05/25 06:21:42;;;;;;;5.00;2.80;;;12.90;73.60;;;;;;5112524;27;20460;-69
2022/05/25 06:24:10;;;;;;;4.50;2.60;;;12.90;73.50;;;;;;5112352;27;20443;-69
2022/05/25 06:26:37;;;;;;;3.88;2.78;;;13.00;72.50;;;;;;5112998;27;20876;-69
2022/05/25 06:29:04;;;;;;;4.43;2.70;;;13.00;72.50;;;;;;5119142;27;20448;-70
2022/05/25 06:31:32;;;;;;;2.92;2.40;;;13.00;72.90;;;;;;5125543;27;21062;-69
2022/05/25 06:33:59;;;;;;;4.82;2.50;;;13.10;71.40;;;;;;5125969;27;20422;-69
2022/05/25 06:36:29;;;;;;;3.95;2.30;;;13.10;71.50;;;;;;5115923;27;20467;-69
2022/05/25 06:38:58;;;;;;;3.63;2.00;;;13.10;71.90;;;;;;5109307;27;20479;-71
2022/05/25 06:41:28;;;;;;;3.55;2.20;;;13.30;71.90;;;;;;5117205;27;20427;-71
2022/05/25 06:43:55;;;;;;;2.42;1.83;;;13.40;70.50;;;;;;5110556;27;20870;-71
2022/05/25 06:46:22;;;;;;;2.60;2.00;;;13.50;68.60;;;;;;5127191;27;21211;-69
2022/05/25 06:48:49;;;;;;;4.22;2.20;;;13.60;69.10;;;;;;5125803;27;20426;-69
2022/05/25 06:51:18;;;;;;;2.33;1.80;;;13.60;68.20;;;;;;5107719;27;20917;-70
2022/05/25 06:53:45;;;;;;;2.53;1.90;;;13.70;69.20;;;;;;5106521;27;20434;-69
2022/05/25 06:56:12;;;;;;;3.45;2.80;;;13.80;69.30;;;;;;5116296;27;20906;-69
2022/05/25 06:58:40;;;;;;;3.05;2.17;;;14.00;67.80;;;;;;5125495;27;20467;-71
2022/05/25 07:01:07;;;;;;;3.20;1.50;;;14.20;67.40;;;;;;5116299;27;20428;-71
2022/05/25 07:03:33;;;;;;;2.60;1.60;;;14.20;66.00;;;;;;5108624;27;20509;-69
2022/05/25 07:06:04;;;;;;;2.60;1.65;;;14.40;65.40;;;;;;5103495;28;20500;-70
2022/05/25 07:08:30;;;;;;;2.17;1.63;;;14.50;65.90;;;;;;5121969;27;20418;-71
2022/05/25 07:10:57;;;;;;;2.30;1.70;;;14.60;65.30;;;;;;5125122;27;20410;-71
2022/05/25 07:13:25;;;;;;;1.98;1.40;;;14.50;63.60;;;;;;5125144;27;20459;-70
2022/05/25 07:15:56;;;;;;;3.00;1.63;;;14.60;64.10;;;;;;5111949;27;21127;-71
2022/05/25 07:18:23;;;;;;;3.80;2.30;;;14.60;63.70;;;;;;5111668;27;20420;-69
2022/05/25 07:20:50;;;;;;;2.10;1.67;;;14.80;65.00;;;;;;5099542;28;20858;-69
2022/05/25 07:23:16;;;;;;;2.63;1.33;;;15.10;62.80;;;;;;5120079;27;20924;-70
2022/05/25 07:25:43;;;;;;;2.40;1.20;;;15.10;61.60;;;;;;5102964;27;20430;-69
2022/05/25 07:28:10;;;;;;;4.07;1.55;;;15.30;63.40;;;;;;5098028;28;20462;-69
2022/05/25 07:30:36;;;;;;;3.85;1.58;;;15.60;61.40;;;;;;5113727;28;20479;-69
2022/05/25 07:33:06;;;;;;;2.70;0.93;;;15.90;60.50;;;;;;5125361;28;20469;-71
2022/05/25 07:35:32;;;;;;;2.20;1.08;;;15.80;59.30;;;;;;5109364;28;20908;-71
2022/05/25 07:37:59;;;;;;;1.58;1.10;;;16.00;58.90;;;;;;5105960;28;20711;-71
2022/05/25 07:40:32;;;;;;;1.88;1.00;;;16.10;58.60;;;;;;5118182;28;20432;-71
2022/05/25 07:43:03;;;;;;;2.33;0.95;;;16.30;56.70;;;;;;5108782;28;20420;-71
2022/05/25 07:45:29;;;;;;;3.17;1.00;;;16.10;57.30;;;;;;5110423;28;20423;-71
2022/05/25 07:47:56;;;;;;;2.47;1.10;;;16.10;58.50;;;;;;5109847;28;20412;-71
2022/05/25 07:50:25;;;;;;;2.03;1.10;;;16.20;56.90;;;;;;5103261;28;20525;-70
2022/05/25 07:52:55;;;;;;;1.20;0.70;;;16.10;56.50;;;;;;5098592;28;20426;-71
2022/05/25 07:55:22;;;;;;;1.80;0.90;;;16.10;56.20;;;;;;5108160;28;20473;-71
2022/05/25 07:57:49;;;;;;;2.40;1.20;;;16.30;56.20;;;;;;5091767;28;20421;-71
2022/05/25 08:00:18;;;;;;;1.60;1.05;;;16.60;54.90;;;;;;5090649;28;20405;-71
2022/05/25 08:05:46;;;;;;;2.42;0.80;;;16.50;56.10;;;;;;5089072;28;20434;-71
2022/05/25 08:08:14;;;;;;;2.25;1.00;;;16.70;56.60;;;;;;5110874;28;20419;-71
2022/05/25 08:10:43;;;;;;;1.10;0.80;;;17.00;53.50;;;;;;5117435;28;20471;-71
2022/05/25 08:13:14;;;;;;;3.20;1.10;;;16.70;54.80;;;;;;5131844;28;20410;-71
2022/05/25 08:15:43;;;;;;;1.40;0.60;;;17.00;55.50;;;;;;5135329;28;20462;-72
2022/05/25 08:18:10;;;;;;;1.50;0.60;;;17.00;50.30;;;;;;5132833;27;20490;-71
2022/05/25 08:20:38;;;;;;;1.60;0.60;;;17.10;49.40;;;;;;5122041;27;20525;-71
2022/05/25 08:23:06;;;;;;;1.80;0.60;;;17.30;50.70;;;;;;5113940;27;20509;-71
2022/05/25 08:25:33;;;;;;;1.40;0.50;;;17.50;47.20;;;;;;5108569;27;20498;-71
2022/05/25 08:27:59;;;;;;;1.35;0.50;;;17.30;47.60;;;;;;5108462;28;20427;-71
2022/05/25 08:30:26;;;;;;;1.60;0.50;;;17.30;47.70;;;;;;5108614;28;20910;-71
2022/05/25 08:32:53;;;;;;;0.77;0.40;;;17.70;47.10;;;;;;5108640;28;20561;-71
2022/05/25 08:35:20;;;;;;;1.38;0.45;;;17.80;45.90;;;;;;5113857;27;20426;-71
2022/05/25 08:37:48;;;;;;;2.20;0.60;;;17.70;46.50;;;;;;5102515;27;20501;-71
2022/05/25 08:40:18;;;;;;;1.50;0.50;;;17.70;45.00;;;;;;5108183;28;20465;-71
2022/05/25 08:42:52;;;;;;;1.80;0.50;;;17.80;45.30;;;;;;5109269;28;20869;-71
2022/05/25 08:45:20;;;;;;;1.00;0.40;;;17.80;45.80;;;;;;5108769;28;20414;-71
2022/05/25 08:47:51;;;;;;;1.02;0.63;;;18.10;43.60;;;;;;5107728;28;20415;-71
2022/05/25 08:50:18;;;;;;;1.40;0.50;;;18.20;44.80;;;;;;5111312;27;20431;-71
2022/05/25 08:52:47;;;;;;;2.30;0.50;;;18.50;44.60;;;;;;5114153;27;20967;-71
2022/05/25 08:55:26;;;;;;;1.90;0.90;;;18.60;43.70;;;;;;5122200;27;21045;-69
2022/05/25 08:57:57;;;;;;;0.90;0.50;;;18.70;42.90;;;;;;5128274;27;20837;-71
2022/05/25 09:00:24;;;;;;;2.55;0.77;;;19.20;43.70;;;;;;5127875;27;21098;-70
2022/05/25 09:02:59;;;;;;;3.35;0.70;;;19.60;41.70;;;;;;5122908;27;20426;-70
2022/05/25 09:05:34;;;;;;;2.92;0.60;;;19.70;40.40;;;;;;5111204;27;20915;-69
2022/05/25 09:08:10;;;;;;;2.90;0.50;;;19.60;41.20;;;;;;5107682;27;20433;-68
2022/05/25 09:10:42;;;;;;;0.60;0.30;;;19.70;37.70;;;;;;5102215;28;20913;-69
2022/05/25 09:13:15;;;;;;;3.40;0.40;;;19.40;38.50;;;;;;5086141;28;20416;-69
2022/05/25 09:18:29;;;;;;;6.10;0.70;;;19.20;38.00;;;;;;5119275;27;20896;-69
2022/05/25 09:20:56;;;;;;;2.10;0.50;;;18.60;39.60;;;;;;5099352;27;20463;-69
2022/05/25 09:23:23;;;;;;;0.80;0.40;;;18.80;42.20;;;;;;5111444;27;20420;-69
2022/05/25 09:25:50;;;;;;;2.15;0.50;;;18.90;40.80;;;;;;5113687;27;20472;-70
2022/05/25 09:28:19;;;;;;;3.10;0.68;;;19.50;41.70;;;;;;5121269;27;20418;-69
2022/05/25 09:30:49;;;;;;;4.38;0.60;;;19.90;38.00;;;;;;5126218;27;20406;-69
2022/05/25 09:33:21;;;;;;;1.00;0.40;;;20.00;36.30;;;;;;5119704;27;20788;-70
2022/05/25 09:35:53;;;;;;;1.40;0.40;;;19.80;36.90;;;;;;5098133;27;20431;-69
2022/05/25 09:38:42;;;;;;;1.50;0.50;;;20.10;36.80;;;;;;5110266;27;21080;-69
2022/05/25 09:41:11;;;;;;;1.17;0.50;;;20.00;37.80;;;;;;5109654;27;21171;-69
2022/05/25 09:43:40;;;;;;;1.55;0.52;;;20.00;36.50;;;;;;5106270;28;20911;-71
2022/05/25 09:46:09;;;;;;;1.40;0.50;;;19.80;37.30;;;;;;5109415;27;20450;-72
2022/05/25 09:48:42;;;;;;;1.00;0.50;;;19.90;38.40;;;;;;5117510;27;20418;-70
2022/05/25 09:51:22;;;;;;;1.50;0.50;;;20.50;36.20;;;;;;5114593;27;20491;-70
2022/05/25 09:53:53;;;;;;;3.50;0.60;;;20.40;34.80;;;;;;5106433;27;20434;-69
2022/05/25 09:56:23;;;;;;;1.50;0.50;;;20.20;36.00;;;;;;5106079;28;20423;-70
2022/05/25 09:58:53;;;;;;;2.30;0.60;;;20.40;36.40;;;;;;5106307;28;20459;-70
2022/05/25 10:01:25;;;;;;;1.10;0.47;;;20.60;36.60;;;;;;5111660;27;20440;-71
2022/05/25 10:03:54;;;;;;;2.00;0.57;;;21.00;35.10;;;;;;5102176;27;20433;-71
2022/05/25 10:06:24;;;;;;;0.95;0.50;;;21.00;34.80;;;;;;5120932;27;20430;-69
2022/05/25 10:09:09;;;;;;;1.23;0.60;;;20.80;34.00;;;;;;5118210;27;20621;-71
2022/05/25 10:11:45;;;;;;;0.65;0.40;;;20.70;35.70;;;;;;5126401;27;20432;-71
2022/05/25 10:14:19;;;;;;;1.30;0.50;;;20.90;35.10;;;;;;5108141;27;20443;-71
2022/05/25 10:16:46;;;;;;;1.10;0.50;;;21.10;34.60;;;;;;5116094;27;20496;-69
2022/05/25 10:19:14;;;;;;;1.48;0.60;;;21.30;34.10;;;;;;5117008;27;20427;-69
2022/05/25 10:21:47;;;;;;;1.50;0.50;;;21.80;34.20;;;;;;5117368;27;20510;-69
2022/05/25 10:24:18;;;;;;;0.80;0.40;;;21.90;32.90;;;;;;5126191;27;20551;-70
2022/05/25 10:26:51;;;;;;;0.90;0.50;;;21.40;30.60;;;;;;5125390;27;20905;-69
2022/05/25 10:37:55;;;;;;;1.02;0.50;;;20.30;34.70;;;;;;5104700;28;20400;-70
2022/05/25 10:40:24;;;;;;;0.77;0.50;;;20.40;34.50;;;;;;5104870;28;20412;-70
2022/05/25 10:42:58;;;;;;;1.35;0.60;;;20.20;35.10;;;;;;5103812;27;20814;-70
2022/05/25 10:45:33;;;;;;;1.00;0.47;;;20.70;35.20;;;;;;5109403;27;20777;-69
2022/05/25 10:48:10;;;;;;;1.65;1.08;;;20.90;34.20;;;;;;5106852;27;20568;-70
2022/05/25 10:50:46;;;;;;;2.40;0.50;;;21.20;34.00;;;;;;5122370;27;20495;-71
2022/05/25 10:53:29;;;;;;;2.07;0.57;;;21.20;32.10;;;;;;5115708;27;20454;-69
2022/05/25 10:56:05;;;;;;;0.70;0.43;;;20.80;32.70;;;;;;5107579;27;20430;-71
2022/05/25 10:58:53;;;;;;;0.93;0.50;;;20.50;33.00;;;;;;5104138;27;20465;-71
2022/05/25 11:01:35;;;;;;;0.70;0.50;;;20.60;34.60;;;;;;5116509;27;20414;-70
2022/05/25 11:04:42;;;;;;;2.70;0.60;;;20.70;33.20;;;;;;5125368;27;20874;-71
2022/05/25 11:07:19;;;;;;;5.68;0.90;;;20.70;33.40;;;;;;5106021;27;20444;-71
2022/05/25 11:10:07;;;;;;;6.80;0.70;;;21.20;34.20;;;;;;5117135;27;20427;-71
2022/05/25 11:12:46;;;;;;;2.00;0.60;;;21.30;33.00;;;;;;5101167;28;20463;-71
2022/05/25 11:15:24;;;;;;;2.05;0.60;;;21.10;33.10;;;;;;5108268;27;20430;-71
2022/05/25 11:18:09;;;;;;;1.52;0.60;;;21.20;32.80;;;;;;5116796;27;20428;-71
2022/05/25 11:20:42;;;;;;;2.10;0.60;;;21.40;33.20;;;;;;5127041;27;20418;-70
2022/05/25 11:23:34;;;;;;;3.03;0.55;;;21.50;31.30;;;;;;5126354;27;20407;-71
2022/05/25 11:26:14;;;;;;;1.67;0.40;;;21.50;31.20;;;;;;5116816;27;20446;-71
2022/05/25 11:28:52;;;;;;;1.55;0.45;;;21.70;31.20;;;;;;5105729;27;20446;-71
2022/05/25 11:31:33;;;;;;;1.25;0.50;;;21.20;31.90;;;;;;5116449;28;20490;-71
2022/05/25 11:34:10;;;;;;;1.15;0.40;;;21.30;32.00;;;;;;5112176;28;20496;-70
2022/05/25 11:36:50;;;;;;;1.60;0.60;;;21.40;32.90;;;;;;5122604;28;20406;-70
2022/05/25 11:39:29;;;;;;;1.80;0.70;;;21.30;32.00;;;;;;5115349;28;20461;-71
2022/05/25 11:42:07;;;;;;;2.40;0.50;;;21.10;32.70;;;;;;5109200;28;20851;-71
2022/05/25 11:44:58;;;;;;;1.90;0.60;;;20.90;33.00;;;;;;5116947;28;20435;-70
2022/05/25 11:47:56;;;;;;;2.30;0.90;;;21.10;32.50;;;;;;5121872;28;20456;-71
2022/05/25 11:50:34;;;;;;;1.33;0.40;;;21.30;31.80;;;;;;5112836;28;20524;-71
2022/05/25 11:53:24;;;;;;;2.00;0.60;;;20.90;31.30;;;;;;5085721;28;20904;-71
2022/05/25 11:56:00;;;;;;;1.00;0.50;;;21.00;32.20;;;;;;5099675;27;20931;-71
2022/05/25 11:58:40;;;;;;;2.00;0.50;;;21.10;33.90;;;;;;5100442;27;20417;-71
2022/05/25 12:01:15;;;;;;;1.10;0.50;;;21.60;30.30;;;;;;5088070;28;20471;-71
2022/05/25 12:04:05;;;;;;;1.40;0.50;;;21.50;30.10;;;;;;5110302;27;20437;-70
2022/05/25 12:07:00;;;;;;;1.70;0.50;;;21.00;30.80;;;;;;5125497;27;20407;-70
2022/05/25 12:10:00;;;;;;;1.60;0.50;;;20.90;32.60;;;;;;5100916;27;20437;-70
2022/05/25 12:12:35;;;;;;;1.88;0.60;;;21.50;32.00;;;;;;5102457;27;20445;-70
2022/05/25 12:15:09;;;;;;;1.30;0.40;;;21.80;30.70;;;;;;5101734;28;20424;-70
2022/05/25 12:17:51;;;;;;;1.13;0.45;;;21.60;30.50;;;;;;5120786;27;20516;-70
2022/05/25 12:20:27;;;;;;;1.00;0.50;;;21.30;31.10;;;;;;5087752;27;20437;-69
2022/05/25 12:22:56;;;;;;;2.45;0.60;;;21.30;30.60;;;;;;5114526;27;20460;-70
2022/05/25 12:25:23;;;;;;;1.40;0.57;;;20.50;32.10;;;;;;5095432;27;20424;-70
2022/05/25 12:27:52;;;;;;;1.40;0.60;;;20.30;31.20;;;;;;5098501;28;20500;-69
2022/05/25 12:30:33;;;;;;;2.10;0.77;;;20.10;32.30;;;;;;5092739;28;20457;-70
2022/05/25 12:33:04;;;;;;;2.00;0.50;;;20.00;33.40;;;;;;5101540;27;20543;-69
2022/05/25 12:35:34;;;;;;;1.43;0.47;;;20.70;31.00;;;;;;5110713;27;21001;-70
2022/05/25 12:38:02;;;;;;;2.33;0.70;;;20.90;30.30;;;;;;5122542;27;20417;-70
2022/05/25 12:40:46;;;;;;;2.60;0.73;;;21.00;31.30;;;;;;5099034;28;20428;-69
2022/05/25 12:43:52;;;;;;;1.65;0.50;;;21.20;30.40;;;;;;5107734;27;20437;-70
2022/05/25 12:49:38;;;;;;;2.63;0.50;;;21.50;32.10;;;;;;5093565;28;20810;-69
2022/05/25 12:52:46;;;;;;;2.30;0.70;;;21.90;30.10;;;;;;5100343;27;20434;-70
2022/05/25 12:55:30;;;;;;;1.40;0.40;;;22.20;29.80;;;;;;5085769;28;21005;-68
2022/05/25 12:57:58;;;;;;;0.73;0.40;;;22.20;29.30;;;;;;5096300;27;20434;-67
2022/05/25 13:00:35;;;;;;;2.38;0.60;;;21.60;29.80;;;;;;5110248;27;20427;-70
2022/05/25 13:03:15;;;;;;;0.98;0.50;;;21.40;30.10;;;;;;5096878;27;20519;-68
2022/05/25 13:05:55;;;;;;;1.35;0.63;;;21.60;29.80;;;;;;5121817;27;20410;-69
2022/05/25 13:09:04;;;;;;;1.98;0.50;;;21.70;29.40;;;;;;5105112;27;20426;-69
2022/05/25 13:11:36;;;;;;;1.20;0.40;;;21.80;31.00;;;;;;5101892;27;20487;-69
2022/05/25 13:14:06;;;;;;;1.42;0.60;;;22.10;30.80;;;;;;5113204;27;20468;-69
2022/05/25 13:16:53;;;;;;;1.75;0.50;;;22.30;30.10;;;;;;5113490;27;20453;-69
2022/05/25 13:19:22;;;;;;;2.17;0.60;;;22.10;29.00;;;;;;5104566;27;20408;-69
2022/05/25 13:22:14;;;;;;;0.73;0.50;;;22.10;29.30;;;;;;5102791;27;20643;-68
2022/05/25 13:25:04;;;;;;;1.88;0.70;;;22.70;30.30;;;;;;5102634;27;20456;-69
2022/05/25 13:27:47;;;;;;;0.80;0.50;;;22.80;28.90;;;;;;5090021;27;20433;-69
2022/05/25 13:30:42;;;;;;;1.57;0.70;;;22.30;29.70;;;;;;5109007;27;20633;-68
2022/05/25 13:33:23;;;;;;;2.60;0.70;;;22.10;31.40;;;;;;5113440;27;20510;-68
2022/05/25 13:35:52;;;;;;;1.13;0.50;;;22.30;31.20;;;;;;5114231;27;20428;-70
2022/05/25 13:38:33;;;;;;;1.00;0.40;;;22.10;29.20;;;;;;5100420;27;20427;-68
2022/05/25 13:41:07;;;;;;;1.98;0.60;;;21.70;29.80;;;;;;5096504;27;20496;-69
2022/05/25 13:43:52;;;;;;;1.70;0.90;;;21.30;31.20;;;;;;5115922;27;20507;-70